createdAt,value
2023-05-27T00:01:14.049Z,28.50
2023-05-27T00:03:43.990Z,40.25
2023-05-27T00:06:13.628Z,33.50
2023-05-27T00:08:43.046Z,44.70
2023-05-27T00:11:12.550Z,36.65
2023-05-27T00:13:42.056Z,33.70
2023-05-27T00:16:12.308Z,42.93
2023-05-27T00:18:41.853Z,34.70
2023-05-27T00:21:11.414Z,39.87
2023-05-27T00:23:40.836Z,30.33
2023-05-27T00:26:10.285Z,26.77
2023-05-27T00:28:40.323Z,40.45
2023-05-27T00:31:09.876Z,39.33
2023-05-27T00:33:40.319Z,46.00
2023-05-27T00:36:09.919Z,37.28
2023-05-27T00:38:39.384Z,52.73
2023-05-27T00:41:11.299Z,27.73
2023-05-27T00:43:41.242Z,27.62
2023-05-27T00:46:11.096Z,35.55
2023-05-27T00:48:40.839Z,43.80
2023-05-27T00:51:10.633Z,46.77
2023-05-27T00:53:42.470Z,42.03
2023-05-27T00:56:14.001Z,54.63
2023-05-27T00:58:44.991Z,47.00
2023-05-27T01:01:14.843Z,44.42
2023-05-27T01:03:44.637Z,35.58
2023-05-27T01:06:31.548Z,33.55
2023-05-27T01:09:13.179Z,30.92
2023-05-27T01:12:12.461Z,40.73
2023-05-27T01:14:44.937Z,31.15
2023-05-27T01:17:17.160Z,46.42
2023-05-27T01:19:47.508Z,42.67
2023-05-27T01:24:47.225Z,36.48
2023-05-27T01:27:16.840Z,41.80
2023-05-27T01:29:46.565Z,30.88
2023-05-27T01:32:48.127Z,32.47
2023-05-27T01:35:35.350Z,36.00
2023-05-27T01:38:07.903Z,44.65
2023-05-27T01:40:39.631Z,31.73
2023-05-27T01:43:11.266Z,37.95
2023-05-27T01:45:43.776Z,20.52
2023-05-27T01:48:13.508Z,22.73
2023-05-27T01:50:43.225Z,19.17
2023-05-27T01:53:14.186Z,23.35
2023-05-27T01:55:44.086Z,22.80
2023-05-27T01:58:14.606Z,25.20
2023-05-27T02:00:44.175Z,22.63
2023-05-27T02:03:13.801Z,23.73
2023-05-27T02:05:43.984Z,21.37
2023-05-27T02:08:13.534Z,27.35
2023-05-27T02:10:43.371Z,21.93
2023-05-27T02:13:12.842Z,25.07
2023-05-27T02:15:44.075Z,26.13
2023-05-27T02:18:14.156Z,19.62
2023-05-27T02:20:44.322Z,16.07
2023-05-27T02:23:13.945Z,28.40
2023-05-27T02:25:43.479Z,28.60
2023-05-27T02:28:14.013Z,23.83
2023-05-27T02:30:43.598Z,29.07
2023-05-27T02:33:13.184Z,29.63
2023-05-27T02:35:42.794Z,28.17
2023-05-27T02:38:12.327Z,24.63
2023-05-27T02:40:41.737Z,23.93
2023-05-27T02:43:11.826Z,27.37
2023-05-27T02:45:41.312Z,36.05
2023-05-27T02:48:10.855Z,26.27
2023-05-27T02:53:09.806Z,27.95
2023-05-27T02:55:39.432Z,24.70
2023-05-27T02:58:09.123Z,33.35
2023-05-27T03:00:38.640Z,31.45
2023-05-27T03:03:09.148Z,23.23
2023-05-27T03:05:38.876Z,35.68
2023-05-27T03:08:08.464Z,20.77
2023-05-27T03:10:38.132Z,29.02
2023-05-27T03:13:07.647Z,25.00
2023-05-27T03:15:37.088Z,26.33
2023-05-27T03:18:07.392Z,25.35
2023-05-27T03:20:36.909Z,29.90
2023-05-27T03:23:06.771Z,21.30
2023-05-27T03:25:36.327Z,32.93
2023-05-27T03:28:06.039Z,24.75
2023-05-27T03:30:36.355Z,29.27
2023-05-27T03:33:06.494Z,24.02
2023-05-27T03:35:37.703Z,24.95
2023-05-27T03:38:07.385Z,25.73
2023-05-27T03:40:36.857Z,22.40
2023-05-27T03:43:08.109Z,22.85
2023-05-27T03:45:37.735Z,18.65
2023-05-27T03:48:07.552Z,24.65
2023-05-27T03:50:37.084Z,26.12
2023-05-27T03:53:06.752Z,25.45
2023-05-27T03:55:36.538Z,23.30
2023-05-27T03:58:05.963Z,23.35
2023-05-27T04:00:36.541Z,23.10
2023-05-27T04:03:07.857Z,32.10
2023-05-27T04:05:37.867Z,22.35
2023-05-27T04:08:07.541Z,27.85
2023-05-27T04:10:36.976Z,27.83
2023-05-27T04:13:06.481Z,30.62
2023-05-27T04:15:36.779Z,32.28
2023-05-27T04:18:07.598Z,22.93
2023-05-27T04:20:41.398Z,21.42
2023-05-27T04:23:11.907Z,29.02
2023-05-27T04:28:12.058Z,22.98
2023-05-27T04:30:43.341Z,32.63
2023-05-27T04:33:18.083Z,28.02
2023-05-27T04:35:48.823Z,23.75
2023-05-27T04:38:21.107Z,19.20
2023-05-27T04:40:56.378Z,34.48
2023-05-27T04:43:39.833Z,35.45
2023-05-27T04:46:09.458Z,45.13
2023-05-27T04:48:39.034Z,28.42
2023-05-27T04:51:08.549Z,32.05
2023-05-27T04:53:38.043Z,25.87
2023-05-27T04:56:09.399Z,34.57
2023-05-27T04:58:40.583Z,34.65
2023-05-27T05:01:11.824Z,46.45
2023-05-27T05:03:42.887Z,34.35
2023-05-27T05:06:12.734Z,27.40
2023-05-27T05:08:42.344Z,24.32
2023-05-27T05:11:11.929Z,33.10
2023-05-27T05:13:41.526Z,32.40
2023-05-27T05:16:11.514Z,31.85
2023-05-27T05:18:41.349Z,29.05
2023-05-27T05:21:10.860Z,16.52
2023-05-27T05:23:42.466Z,31.40
2023-05-27T05:26:11.948Z,23.65
2023-05-27T05:28:42.970Z,16.75
2023-05-27T05:33:41.895Z,34.13
2023-05-27T05:36:11.504Z,47.10
2023-05-27T05:38:45.626Z,37.75
2023-05-27T05:41:15.611Z,44.33
2023-05-27T05:43:45.492Z,25.25
2023-05-27T05:46:15.797Z,33.10
2023-05-27T05:48:45.447Z,26.75
2023-05-27T05:51:16.844Z,31.48
2023-05-27T05:53:48.063Z,35.95
2023-05-27T05:56:17.625Z,37.63
2023-05-27T05:58:47.134Z,28.27
2023-05-27T06:01:17.947Z,41.25
2023-05-27T06:06:18.172Z,28.05
2023-05-27T06:09:06.416Z,46.92
2023-05-27T06:11:36.115Z,43.90
2023-05-27T06:14:05.971Z,38.00
2023-05-27T06:16:40.049Z,32.30
2023-05-27T06:19:09.723Z,37.13
2023-05-27T06:21:39.318Z,23.02
2023-05-27T06:24:10.548Z,26.27
2023-05-27T06:26:41.713Z,23.77
2023-05-27T06:29:11.236Z,35.63
2023-05-27T06:31:40.708Z,38.08
2023-05-27T06:34:10.218Z,35.20
2023-05-27T06:36:39.689Z,37.07
2023-05-27T06:39:10.022Z,26.97
2023-05-27T06:41:40.110Z,21.35
2023-05-27T06:44:27.701Z,35.38
2023-05-27T06:47:03.126Z,25.05
2023-05-27T06:49:33.244Z,19.70
2023-05-27T06:52:07.348Z,23.38
2023-05-27T06:54:39.049Z,19.00
2023-05-27T06:57:13.296Z,25.25
2023-05-27T06:59:50.469Z,15.90
2023-05-27T07:02:20.056Z,23.15
2023-05-27T07:04:49.656Z,15.78
2023-05-27T07:07:19.603Z,10.83
2023-05-27T07:09:49.280Z,30.97
2023-05-27T07:12:19.232Z,10.30
2023-05-27T07:14:50.517Z,14.75
2023-05-27T07:17:20.164Z,13.48
2023-05-27T07:19:49.981Z,16.93
2023-05-27T07:22:21.275Z,22.60
2023-05-27T07:24:50.973Z,17.35
2023-05-27T07:27:21.760Z,28.17
2023-05-27T07:29:53.032Z,11.88
2023-05-27T07:32:24.402Z,9.25
2023-05-27T07:34:54.323Z,12.93
2023-05-27T07:37:26.627Z,16.13
2023-05-27T07:39:56.110Z,32.03
2023-05-27T07:42:26.279Z,11.53
2023-05-27T07:44:56.434Z,27.50
2023-05-27T07:47:26.524Z,10.43
2023-05-27T07:49:56.043Z,12.23
2023-05-27T07:52:43.938Z,12.98
2023-05-27T07:55:24.437Z,24.77
2023-05-27T07:57:54.749Z,13.53
2023-05-27T08:00:25.132Z,11.97
2023-05-27T08:02:56.823Z,19.92
2023-05-27T08:05:44.544Z,15.78
2023-05-27T08:08:16.258Z,16.70
2023-05-27T08:10:59.729Z,13.55
2023-05-27T08:13:30.941Z,13.70
2023-05-27T08:16:02.121Z,8.48
2023-05-27T08:18:39.474Z,17.62
2023-05-27T08:21:10.580Z,24.80
2023-05-27T08:23:41.803Z,16.62
2023-05-27T08:26:15.745Z,16.17
2023-05-27T08:28:49.741Z,14.65
2023-05-27T08:31:32.933Z,20.97
2023-05-27T08:34:04.285Z,22.80
2023-05-27T08:36:35.451Z,24.15
2023-05-27T08:39:06.205Z,25.85
2023-05-27T08:41:38.314Z,17.75
2023-05-27T08:46:39.523Z,17.48
2023-05-27T08:49:09.155Z,26.05
2023-05-27T08:51:41.240Z,18.95
2023-05-27T08:54:11.279Z,12.58
2023-05-27T08:56:42.183Z,19.55
2023-05-27T08:59:14.028Z,20.97
2023-05-27T09:01:44.764Z,16.52
2023-05-27T09:04:15.380Z,19.00
2023-05-27T09:06:44.980Z,11.65
2023-05-27T09:09:14.683Z,16.93
2023-05-27T09:11:44.455Z,16.82
2023-05-27T09:14:23.427Z,20.15
2023-05-27T09:16:52.968Z,22.48
2023-05-27T09:19:22.784Z,13.27
2023-05-27T09:21:54.417Z,13.35
2023-05-27T09:24:25.562Z,17.25
2023-05-27T09:26:56.505Z,22.13
2023-05-27T09:29:27.057Z,22.15
2023-05-27T09:31:57.622Z,10.30
2023-05-27T09:34:28.906Z,24.25
2023-05-27T09:36:59.765Z,21.40
2023-05-27T09:39:29.247Z,19.32
2023-05-27T09:42:00.147Z,19.97
2023-05-27T09:44:37.369Z,16.75
2023-05-27T09:47:07.248Z,17.05
2023-05-27T09:49:39.623Z,13.70
2023-05-27T09:52:11.784Z,24.63
2023-05-27T09:54:41.517Z,19.07
2023-05-27T09:57:12.605Z,16.35
2023-05-27T09:59:43.351Z,14.55
2023-05-27T10:02:15.801Z,19.60
2023-05-27T10:04:46.383Z,19.67
2023-05-27T10:07:18.542Z,18.77
2023-05-27T10:09:49.274Z,11.97
2023-05-27T10:12:19.279Z,49.10
2023-05-27T10:14:50.134Z,41.18
2023-05-27T10:17:19.577Z,36.17
2023-05-27T10:19:57.589Z,24.33
2023-05-27T10:22:27.170Z,20.25
2023-05-27T10:24:56.695Z,24.60
2023-05-27T10:27:26.149Z,23.77
2023-05-27T10:30:01.615Z,20.50
2023-05-27T10:32:31.320Z,14.83
2023-05-27T10:35:01.661Z,16.87
2023-05-27T10:40:01.758Z,22.27
2023-05-27T10:42:31.242Z,20.77
2023-05-27T10:45:08.692Z,15.57
2023-05-27T10:47:38.675Z,26.20
2023-05-27T10:50:15.671Z,13.60
2023-05-27T10:52:45.144Z,11.20
2023-05-27T10:55:15.202Z,24.23
2023-05-27T10:57:44.624Z,8.70
2023-05-27T11:00:17.973Z,23.93
2023-05-27T11:02:48.780Z,22.30
2023-05-27T11:05:19.786Z,13.98
2023-05-27T11:07:49.182Z,20.95
2023-05-27T11:10:18.862Z,14.50
2023-05-27T11:12:49.523Z,19.30
2023-05-27T11:15:20.850Z,22.17
2023-05-27T11:17:50.644Z,13.65
2023-05-27T11:20:20.262Z,13.95
2023-05-27T11:22:53.091Z,20.97
2023-05-27T11:25:22.534Z,16.87
2023-05-27T11:27:52.035Z,26.50
2023-05-27T11:30:28.284Z,8.80
2023-05-27T11:33:04.109Z,26.82
2023-05-27T11:35:32.713Z,23.73
2023-05-27T11:38:03.335Z,18.73
2023-05-27T11:40:39.872Z,13.75
2023-05-27T11:43:09.333Z,13.08
2023-05-27T11:45:39.601Z,15.43
2023-05-27T11:48:10.691Z,13.58
2023-05-27T11:50:40.254Z,14.87
2023-05-27T11:53:09.748Z,19.60
2023-05-27T11:55:40.885Z,16.60
2023-05-27T11:58:10.448Z,18.95
2023-05-27T12:00:39.869Z,14.93
2023-05-27T12:03:09.511Z,19.35
2023-05-27T12:05:39.157Z,11.10
2023-05-27T12:08:08.724Z,17.95
2023-05-27T12:10:38.195Z,14.70
2023-05-27T12:13:08.306Z,21.30
2023-05-27T12:15:37.819Z,18.17
2023-05-27T12:18:07.729Z,14.97
2023-05-27T12:20:37.301Z,15.43
2023-05-27T12:23:06.793Z,31.83
2023-05-27T12:25:36.270Z,25.45
2023-05-27T12:28:07.658Z,98.80
2023-05-27T12:30:38.159Z,78.15
2023-05-27T12:33:08.408Z,28.38
2023-05-27T12:38:06.549Z,19.20
2023-05-27T12:40:35.990Z,20.87
2023-05-27T12:43:06.272Z,10.88
2023-05-27T12:45:35.905Z,14.28
2023-05-27T12:48:05.544Z,15.38
2023-05-27T12:50:35.209Z,18.30
2023-05-27T12:53:06.084Z,22.77
2023-05-27T12:55:36.262Z,28.60
2023-05-27T12:58:05.884Z,15.78
2023-05-27T13:00:35.555Z,15.88
2023-05-27T13:03:05.351Z,12.05
2023-05-27T13:05:34.905Z,16.15
2023-05-27T13:08:08.566Z,15.50
2023-05-27T13:10:38.211Z,14.63
2023-05-27T13:13:07.850Z,17.87
2023-05-27T13:15:38.251Z,18.15
2023-05-27T13:20:37.893Z,14.03
2023-05-27T13:23:07.435Z,8.98
2023-05-27T13:25:36.944Z,18.95
2023-05-27T13:28:06.466Z,16.80
2023-05-27T13:30:36.003Z,15.90
2023-05-27T13:33:05.828Z,22.47
2023-05-27T13:35:35.289Z,15.28
2023-05-27T13:38:06.441Z,12.63
2023-05-27T13:40:35.844Z,17.23
2023-05-27T13:43:05.348Z,16.48
2023-05-27T13:45:34.830Z,16.48
2023-05-27T13:48:04.481Z,11.25
2023-05-27T13:50:34.030Z,13.35
2023-05-27T13:53:03.552Z,18.10
2023-05-27T13:55:33.142Z,15.37
2023-05-27T13:58:03.420Z,11.43
2023-05-27T14:03:01.801Z,16.52
2023-05-27T14:05:31.243Z,13.22
2023-05-27T14:08:02.370Z,26.50
2023-05-27T14:10:35.172Z,11.25
2023-05-27T14:13:06.012Z,20.15
2023-05-27T14:15:36.455Z,23.25
2023-05-27T14:18:06.713Z,13.48
2023-05-27T14:23:10.632Z,11.80
2023-05-27T14:25:40.880Z,14.00
2023-05-27T14:28:10.747Z,20.92
2023-05-27T14:30:40.363Z,16.80
2023-05-27T14:33:11.140Z,19.20
2023-05-27T14:35:41.708Z,10.13
2023-05-27T14:38:11.471Z,13.15
2023-05-27T14:40:41.063Z,11.40
2023-05-27T14:43:10.462Z,11.87
2023-05-27T14:45:40.202Z,15.68
2023-05-27T14:48:09.767Z,13.75
2023-05-27T14:50:39.277Z,12.10
2023-05-27T14:53:08.763Z,19.47
2023-05-27T14:55:38.358Z,23.53
2023-05-27T14:58:07.957Z,14.45
2023-05-27T15:00:37.466Z,12.77
2023-05-27T15:03:06.945Z,20.23
2023-05-27T15:05:36.941Z,16.17
2023-05-27T15:08:08.047Z,9.93
2023-05-27T15:10:37.685Z,16.32
2023-05-27T15:13:07.094Z,24.05
2023-05-27T15:15:38.240Z,17.55
2023-05-27T15:18:08.886Z,17.77
2023-05-27T15:20:38.679Z,13.70
2023-05-27T15:23:08.280Z,12.78
2023-05-27T15:25:38.186Z,18.13
2023-05-27T15:28:07.746Z,15.80
2023-05-27T15:30:37.196Z,13.73
2023-05-27T15:33:06.959Z,7.17
2023-05-27T15:35:36.875Z,20.10
2023-05-27T15:38:06.407Z,29.00
2023-05-27T15:40:37.501Z,11.00
2023-05-27T15:43:06.988Z,10.45
2023-05-27T15:45:39.348Z,15.83
2023-05-27T15:48:11.055Z,17.10
2023-05-27T15:50:43.174Z,14.13
2023-05-27T15:53:12.585Z,17.90
2023-05-27T15:55:42.982Z,12.17
2023-05-27T16:00:41.194Z,25.57
2023-05-27T16:03:10.723Z,13.53
2023-05-27T16:05:40.260Z,20.37
2023-05-27T16:08:09.970Z,23.83
2023-05-27T16:10:52.763Z,15.05
2023-05-27T16:13:26.427Z,22.85
2023-05-27T16:15:56.826Z,21.57
2023-05-27T16:20:55.435Z,22.42
2023-05-27T16:23:25.429Z,15.75
2023-05-27T16:25:54.978Z,21.37
2023-05-27T16:28:24.509Z,24.53
2023-05-27T16:30:54.541Z,24.17
2023-05-27T16:33:24.250Z,26.80
2023-05-27T16:35:54.858Z,28.55
2023-05-27T16:38:24.372Z,23.52
2023-05-27T16:40:53.960Z,25.83
2023-05-27T16:43:23.541Z,31.17
2023-05-27T16:45:53.220Z,23.80
2023-05-27T16:48:22.890Z,33.63
2023-05-27T16:50:52.536Z,17.65
2023-05-27T16:53:22.115Z,28.38
2023-05-27T16:55:51.711Z,28.20
2023-05-27T16:58:21.433Z,23.77
2023-05-27T17:01:01.985Z,30.20
2023-05-27T17:03:31.839Z,26.45
2023-05-27T17:06:01.582Z,30.23
2023-05-27T17:08:31.021Z,19.25
2023-05-27T17:11:00.427Z,21.70
2023-05-27T17:13:29.914Z,24.30
2023-05-27T17:15:59.588Z,24.37
2023-05-27T17:18:29.033Z,36.75
2023-05-27T17:20:58.631Z,34.40
2023-05-27T17:23:28.287Z,28.92
2023-05-27T17:25:57.767Z,24.50
2023-05-27T17:28:27.247Z,21.27
2023-05-27T17:30:56.965Z,30.72
2023-05-27T17:33:26.382Z,31.68
2023-05-27T17:35:55.952Z,40.48
2023-05-27T17:38:27.217Z,21.80
2023-05-27T17:40:57.349Z,28.12
2023-05-27T17:43:27.158Z,12.68
2023-05-27T17:45:58.026Z,27.50
2023-05-27T17:48:27.588Z,30.50
2023-05-27T17:50:57.570Z,26.23
2023-05-27T17:53:27.158Z,31.90
2023-05-27T17:55:56.666Z,24.92
2023-05-27T17:58:26.244Z,21.70
2023-05-27T18:00:56.296Z,35.93
2023-05-27T18:03:26.191Z,25.62
2023-05-27T18:05:55.845Z,25.35
2023-05-27T18:08:25.462Z,29.70
2023-05-27T18:10:54.994Z,25.92
2023-05-27T18:13:24.501Z,25.13
2023-05-27T18:15:55.646Z,31.03
2023-05-27T18:18:25.191Z,29.00
2023-05-27T18:20:56.481Z,36.57
2023-05-27T18:23:25.992Z,34.40
2023-05-27T18:25:55.442Z,33.70
2023-05-27T18:28:25.036Z,29.33
2023-05-27T18:30:54.537Z,38.13
2023-05-27T18:33:24.203Z,29.40
2023-05-27T18:35:53.700Z,23.02
2023-05-27T18:38:23.254Z,26.25
2023-05-27T18:40:53.606Z,26.80
2023-05-27T18:45:59.748Z,27.75
2023-05-27T18:48:31.311Z,33.08
2023-05-27T18:51:01.364Z,36.65
2023-05-27T18:53:30.796Z,29.27
2023-05-27T18:56:00.282Z,19.50
2023-05-27T18:58:29.747Z,41.83
2023-05-27T19:00:59.159Z,45.58
2023-05-27T19:03:28.743Z,27.48
2023-05-27T19:05:58.221Z,42.03
2023-05-27T19:08:28.625Z,37.55
2023-05-27T19:10:58.149Z,35.28
2023-05-27T19:13:27.719Z,35.53
2023-05-27T19:15:57.366Z,45.07
2023-05-27T19:18:27.329Z,52.98
2023-05-27T19:20:56.886Z,40.45
2023-05-27T19:23:26.409Z,54.35
2023-05-27T19:25:55.987Z,48.17
2023-05-27T19:28:25.636Z,31.67
2023-05-27T19:30:57.167Z,35.10
2023-05-27T19:33:26.576Z,23.83
2023-05-27T19:35:57.731Z,27.07
2023-05-27T19:38:27.284Z,29.15
2023-05-27T19:40:58.442Z,37.87
2023-05-27T19:43:28.221Z,32.30
2023-05-27T19:45:57.766Z,33.65
2023-05-27T19:48:27.184Z,19.70
2023-05-27T19:50:57.216Z,39.55
2023-05-27T19:53:33.183Z,29.80
2023-05-27T19:56:04.343Z,25.45
2023-05-27T19:58:34.659Z,46.00
2023-05-27T20:03:33.667Z,35.85
2023-05-27T20:06:03.198Z,28.25
2023-05-27T20:08:33.003Z,43.55
2023-05-27T20:11:03.097Z,67.08
2023-05-27T20:13:32.556Z,108.07
2023-05-27T20:16:02.156Z,92.53
2023-05-27T20:18:32.019Z,69.27
2023-05-27T20:21:01.482Z,54.75
2023-05-27T20:23:30.904Z,62.25
2023-05-27T20:26:00.531Z,38.75
2023-05-27T20:28:30.020Z,60.73
2023-05-27T20:30:59.650Z,51.67
2023-05-27T20:33:29.037Z,55.60
2023-05-27T20:35:58.490Z,69.30
2023-05-27T20:38:28.023Z,44.67
2023-05-27T20:40:57.512Z,33.90
2023-05-27T20:43:26.919Z,39.47
2023-05-27T20:45:56.652Z,38.75
2023-05-27T20:48:26.118Z,33.25
2023-05-27T20:50:55.870Z,23.05
2023-05-27T20:53:25.341Z,39.58
2023-05-27T20:55:54.884Z,38.13
2023-05-27T20:58:25.508Z,37.33
2023-05-27T21:00:55.294Z,70.03
2023-05-27T21:03:24.963Z,51.28
2023-05-27T21:05:54.623Z,52.73
2023-05-27T21:08:24.202Z,34.87
2023-05-27T21:10:54.003Z,86.27
2023-05-27T21:13:23.572Z,62.20
2023-05-27T21:15:53.180Z,39.03
2023-05-27T21:18:22.825Z,34.43
2023-05-27T21:20:52.595Z,46.30
2023-05-27T21:23:23.817Z,43.85
2023-05-27T21:25:54.243Z,36.80
2023-05-27T21:28:23.710Z,30.62
2023-05-27T21:30:53.561Z,43.83
2023-05-27T21:33:23.270Z,94.70
2023-05-27T21:35:53.295Z,49.07
2023-05-27T21:38:23.873Z,49.73
2023-05-27T21:43:21.911Z,32.10
2023-05-27T21:45:51.574Z,38.80
2023-05-27T21:48:21.525Z,29.48
2023-05-27T21:50:51.232Z,36.90
2023-05-27T21:53:20.677Z,25.00
2023-05-27T21:55:50.085Z,29.48
2023-05-27T21:58:19.638Z,39.13
2023-05-27T22:00:49.121Z,46.17
2023-05-27T22:03:18.818Z,47.90
2023-05-27T22:05:49.823Z,48.87
2023-05-27T22:08:19.348Z,33.53
2023-05-27T22:10:49.696Z,34.93
2023-05-27T22:15:49.476Z,46.85
2023-05-27T22:18:19.068Z,44.00
2023-05-27T22:20:48.590Z,53.77
2023-05-27T22:23:19.394Z,27.73
2023-05-27T22:25:48.799Z,28.15
2023-05-27T22:28:18.322Z,42.15
2023-05-27T22:30:47.809Z,35.53
2023-05-27T22:33:17.392Z,26.48
2023-05-27T22:35:46.806Z,29.70
2023-05-27T22:38:16.395Z,36.00
2023-05-27T22:40:45.871Z,36.77
2023-05-27T22:43:15.395Z,23.60
2023-05-27T22:45:44.936Z,32.87
2023-05-27T22:48:14.428Z,28.93
2023-05-27T22:50:43.798Z,43.67
2023-05-27T22:53:13.245Z,31.95
2023-05-27T22:55:42.651Z,34.43
2023-05-27T22:58:12.167Z,33.83
2023-05-27T23:00:41.573Z,30.83
2023-05-27T23:03:13.048Z,22.15
2023-05-27T23:05:42.920Z,34.78
2023-05-27T23:08:12.438Z,38.23
2023-05-27T23:10:41.841Z,34.70
2023-05-27T23:13:11.304Z,22.20
2023-05-27T23:15:40.765Z,35.05
2023-05-27T23:18:10.371Z,33.07
2023-05-27T23:20:39.936Z,30.82
2023-05-27T23:23:09.486Z,33.98
2023-05-27T23:25:39.130Z,34.05
2023-05-27T23:28:09.391Z,28.35
2023-05-27T23:30:38.868Z,29.57
2023-05-27T23:33:08.442Z,32.57
2023-05-27T23:35:37.886Z,28.60
2023-05-27T23:38:07.322Z,29.15
2023-05-27T23:40:37.572Z,19.67
2023-05-27T23:43:07.088Z,24.18
2023-05-27T23:45:36.681Z,30.10
2023-05-27T23:48:06.314Z,26.87
2023-05-27T23:50:35.818Z,24.07
2023-05-27T23:53:05.506Z,27.80
2023-05-27T23:55:34.932Z,30.52
2023-05-27T23:58:04.446Z,37.30
